Time;durP1;ratioP1;P1;durP2;ratioP2;P2;SDS_P1;SDS_P2;PMS_P1;PMS_P2;Temp;Humidity;BMP_temperature;BMP_pressure;BME280_temperature;BME280_humidity;BME280_pressure;Samples;Min_cycle;Max_cycle;Signal;HPM_P1;HPM_P2
2022/06/25 00:01:17;;;;;;;;;;;;;;;22.89;51.19;100250.91;7283910;19;156939;-79
2022/06/25 00:03:44;;;;;;;;;;;;;;;22.92;51.05;100253.03;7287836;19;152077;-80
2022/06/25 00:06:11;;;;;;;;;;;;;;;22.97;50.94;100264.94;7281484;19;153845;-79
2022/06/25 00:08:44;;;;;;;;;;;;;;;22.89;50.82;100262.16;7282324;19;153691;-80
2022/06/25 00:13:56;;;;;;;;;;;;;;;22.82;51.23;100276.78;7281718;19;154574;-78
2022/06/25 00:16:23;;;;;;;;;;;;;;;22.87;51.07;100276.56;7279559;19;156049;-79
2022/06/25 00:18:50;;;;;;;;;;;;;;;22.83;51.52;100269.16;7281441;19;151976;-78
2022/06/25 00:21:17;;;;;;;;;;;;;;;22.84;51.27;100279.25;7282043;19;153481;-79
2022/06/25 00:23:43;;;;;;;;;;;;;;;22.91;51.24;100271.09;7288352;19;152673;-78
2022/06/25 00:26:10;;;;;;;;;;;;;;;22.88;51.42;100272.59;7283711;19;153421;-78
2022/06/25 00:28:37;;;;;;;;;;;;;;;22.85;51.34;100270.44;7282127;19;152575;-78
2022/06/25 00:31:03;;;;;;;;;;;;;;;;;;7281043;19;152321;-79
2022/06/25 00:33:30;;;;;;;;;;;;;;;22.88;51.12;100283.03;7276239;19;180342;-79
2022/06/25 00:35:57;;;;;;;;;;;;;;;22.90;51.10;100289.97;7281282;19;154981;-79
2022/06/25 00:38:24;;;;;;;;;;;;;;;;;;7282954;19;151835;-78
2022/06/25 00:40:51;;;;;;;;;;;;;;;22.87;51.23;100284.19;7282117;19;181037;-79
2022/06/25 00:43:18;;;;;;;;;;;;;;;22.85;51.71;100281.72;7282179;19;155380;-78
2022/06/25 00:45:45;;;;;;;;;;;;;;;22.86;51.67;100282.53;7288458;19;151744;-80
2022/06/25 00:48:13;;;;;;;;;;;;;;;22.92;51.69;100292.47;7276316;19;154614;-79
2022/06/25 00:50:40;;;;;;;;;;;;;;;22.90;51.64;100300.41;7282733;19;152520;-79
2022/06/25 00:53:08;;;;;;;;;;;;;;;22.90;51.74;100301.25;7281112;19;153169;-79
2022/06/25 00:55:37;;;;;;;;;;;;;;;22.90;51.90;100297.59;7281836;19;153904;-78
2022/06/25 00:58:07;;;;;;;;;;;;;;;22.89;51.51;100305.25;7282964;19;151899;-78
2022/06/25 01:00:34;;;;;;;;;;;;;;;22.84;52.08;100301.78;7280861;19;156388;-78
2022/06/25 01:03:01;;;;;;;;;;;;;;;22.83;51.89;100302.94;7278419;19;154588;-78
2022/06/25 01:05:27;;;;;;;;;;;;;;;22.83;52.11;100312.22;7279573;19;152331;-78
2022/06/25 01:07:55;;;;;;;;;;;;;;;22.82;52.07;100309.75;7289107;19;153774;-78
2022/06/25 01:10:22;;;;;;;;;;;;;;;22.84;51.94;100313.06;7283006;19;152092;-79
2022/06/25 01:12:49;;;;;;;;;;;;;;;22.82;51.92;100313.38;7281742;19;155016;-80
2022/06/25 01:15:17;;;;;;;;;;;;;;;22.84;51.71;100318.69;7278845;19;154508;-79
2022/06/25 01:17:44;;;;;;;;;;;;;;;22.82;52.10;100316.22;7280026;19;152673;-77
2022/06/25 01:20:11;;;;;;;;;;;;;;;22.82;52.06;100307.75;7279428;19;152654;-78
2022/06/25 01:22:38;;;;;;;;;;;;;;;22.79;52.15;100313.25;7282680;19;153553;-80
2022/06/25 01:25:09;;;;;;;;;;;;;;;22.83;51.86;100311.41;7281953;19;152500;-78
2022/06/25 01:27:36;;;;;;;;;;;;;;;;;;7281108;19;154152;-78
2022/06/25 01:30:03;;;;;;;;;;;;;;;22.88;52.31;100319.66;7285043;19;182189;-78
2022/06/25 01:32:30;;;;;;;;;;;;;;;22.85;52.64;100328.81;7279199;19;154474;-79
2022/06/25 01:34:57;;;;;;;;;;;;;;;22.86;52.58;100327.63;7274675;19;154094;-79
2022/06/25 01:37:24;;;;;;;;;;;;;;;22.88;52.47;100322.47;7281061;19;156816;-78
2022/06/25 01:39:52;;;;;;;;;;;;;;;22.92;52.53;100323.44;7282903;19;152302;-80
2022/06/25 01:45:04;;;;;;;;;;;;;;;;;;7282542;19;152114;-79
2022/06/25 01:47:31;;;;;;;;;;;;;;;22.89;52.44;100341.88;7275649;19;182440;-79
2022/06/25 01:49:58;;;;;;;;;;;;;;;22.90;52.68;100343.50;7277868;19;153711;-80
2022/06/25 01:52:24;;;;;;;;;;;;;;;22.88;52.72;100336.56;7286895;19;152084;-79
2022/06/25 01:54:51;;;;;;;;;;;;;;;22.91;52.31;100344.31;7277701;19;154572;-79
2022/06/25 01:57:18;;;;;;;;;;;;;;;22.90;52.61;100346.31;7280784;19;152298;-79
2022/06/25 01:59:46;;;;;;;;;;;;;;;22.91;52.87;100352.78;7280402;19;152198;-79
2022/06/25 02:02:14;;;;;;;;;;;;;;;22.88;52.79;100345.84;7278845;19;153638;-79
2022/06/25 02:04:41;;;;;;;;;;;;;;;22.89;52.69;100349.50;7277714;19;153595;-78
2022/06/25 02:07:08;;;;;;;;;;;;;;;22.91;52.98;100349.97;7279441;19;152931;-78
2022/06/25 02:09:34;;;;;;;;;;;;;;;22.89;52.68;100349.50;7278876;19;152677;-78
2022/06/25 02:12:01;;;;;;;;;;;;;;;22.86;52.74;100347.34;7289546;19;155980;-78
2022/06/25 02:14:28;;;;;;;;;;;;;;;;;;7274249;19;152917;-78
2022/06/25 02:16:55;;;;;;;;;;;;;;;22.88;53.09;100354.31;7275297;19;159282;-79
2022/06/25 02:19:21;;;;;;;;;;;;;;;22.87;53.52;100357.44;7278826;19;153296;-78
2022/06/25 02:21:48;;;;;;;;;;;;;;;22.86;53.31;100364.25;7278093;19;153711;-78
2022/06/25 02:24:15;;;;;;;;;;;;;;;;;;7279334;19;152154;-78
2022/06/25 02:26:41;;;;;;;;;;;;;;;22.89;53.27;100367.22;7277893;19;182614;-78
2022/06/25 02:29:08;;;;;;;;;;;;;;;22.84;53.56;100366.59;7277055;19;155071;-78
2022/06/25 02:31:35;;;;;;;;;;;;;;;;;;7275030;19;154100;-78
2022/06/25 02:34:01;;;;;;;;;;;;;;;22.91;53.04;100372.50;7279349;19;181931;-79
2022/06/25 02:36:30;;;;;;;;;;;;;;;22.83;53.60;100368.56;7280925;19;152289;-79
2022/06/25 02:38:57;;;;;;;;;;;;;;;22.89;53.52;100380.47;7279130;19;153199;-79
2022/06/25 02:41:23;;;;;;;;;;;;;;;22.86;53.40;100378.31;7279731;19;153992;-78
2022/06/25 02:43:50;;;;;;;;;;;;;;;22.81;53.96;100370.88;7280311;19;152222;-79
2022/06/25 02:46:17;;;;;;;;;;;;;;;22.81;53.91;100370.06;7279653;19;152899;-78
2022/06/25 02:48:43;;;;;;;;;;;;;;;22.79;53.83;100366.78;7275464;19;154261;-79
2022/06/25 02:51:10;;;;;;;;;;;;;;;22.81;53.69;100375.69;7279171;19;151915;-79
2022/06/25 02:53:37;;;;;;;;;;;;;;;22.83;53.97;100365.75;7278553;19;153551;-79
2022/06/25 02:58:55;;;;;;;;;;;;;;;22.83;53.64;100374.19;7278245;19;152443;-78
2022/06/25 03:01:23;;;;;;;;;;;;;;;22.84;53.77;100375.03;7276816;19;154470;-79
2022/06/25 03:03:50;;;;;;;;;;;;;;;22.87;53.49;100371.53;7275522;19;152375;-78
2022/06/25 03:06:17;;;;;;;;;;;;;;;22.85;53.58;100382.31;7277335;19;154093;-79
2022/06/25 03:08:44;;;;;;;;;;;;;;;22.82;53.85;100378.19;7277883;19;153977;-78
2022/06/25 03:11:14;;;;;;;;;;;;;;;22.85;53.46;100382.31;7277062;19;152022;-79
2022/06/25 03:13:41;;;;;;;;;;;;;;;22.81;53.50;100384.13;7276763;19;153597;-79
2022/06/25 03:16:08;;;;;;;;;;;;;;;22.81;53.76;100398.22;7276114;19;153373;-79
2022/06/25 03:18:36;;;;;;;;;;;;;;;22.83;53.33;100398.72;7283003;19;152397;-78
2022/06/25 03:21:03;;;;;;;;;;;;;;;22.79;53.59;100403.38;7277905;19;154781;-79
2022/06/25 03:23:29;;;;;;;;;;;;;;;22.80;53.66;100403.06;7277253;19;152141;-78
2022/06/25 03:25:56;;;;;;;;;;;;;;;22.84;53.44;100403.19;7285197;19;153000;-78
2022/06/25 03:28:23;;;;;;;;;;;;;;;22.83;53.11;100408.00;7281864;19;153795;-78
2022/06/25 03:30:50;;;;;;;;;;;;;;;22.82;53.44;100405.50;7282531;19;152185;-78
2022/06/25 03:33:17;;;;;;;;;;;;;;;22.85;53.25;100408.47;7282910;19;152582;-78
2022/06/25 03:35:43;;;;;;;;;;;;;;;22.84;53.59;100403.19;7281700;19;153214;-78
2022/06/25 03:38:10;;;;;;;;;;;;;;;22.85;53.61;100410.50;7284877;19;151989;-78
2022/06/25 03:40:37;;;;;;;;;;;;;;;22.84;53.24;100408.84;7292290;19;153792;-78
2022/06/25 03:43:03;;;;;;;;;;;;;;;22.84;53.24;100411.66;7282034;19;151809;-83
2022/06/25 03:45:30;;;;;;;;;;;;;;;22.80;53.40;100421.94;7284411;19;153531;-79
2022/06/25 03:47:57;;;;;;;;;;;;;;;22.72;53.58;100419.97;7282520;19;153283;-80
2022/06/25 03:50:24;;;;;;;;;;;;;;;22.76;53.66;100416.13;7281484;19;152456;-79
2022/06/25 03:52:51;;;;;;;;;;;;;;;22.76;53.70;100423.78;7285253;19;153472;-79
2022/06/25 03:55:18;;;;;;;;;;;;;;;22.75;53.65;100417.31;7278628;19;153318;-79
2022/06/25 03:57:52;;;;;;;;;;;;;;;22.78;53.53;100413.81;7282668;19;152787;-79
2022/06/25 04:00:18;;;;;;;;;;;;;;;22.78;53.78;100421.44;7284331;19;152841;-78
2022/06/25 04:02:45;;;;;;;;;;;;;;;22.78;53.63;100416.63;7285674;19;153920;-79
2022/06/25 04:05:12;;;;;;;;;;;;;;;22.75;53.60;100424.94;7281279;19;153333;-79
2022/06/25 04:07:38;;;;;;;;;;;;;;;22.76;53.62;100427.41;7282821;19;155725;-78
2022/06/25 04:10:06;;;;;;;;;;;;;;;22.76;53.81;100426.59;7283990;19;152136;-79
2022/06/25 04:12:32;;;;;;;;;;;;;;;22.74;53.55;100441.00;7280971;19;154063;-79
2022/06/25 04:14:59;;;;;;;;;;;;;;;22.71;54.01;100435.22;7279387;19;155286;-80
2022/06/25 04:17:26;;;;;;;;;;;;;;;22.73;53.98;100430.91;7282230;19;152753;-79
2022/06/25 04:19:53;;;;;;;;;;;;;;;22.71;53.61;100427.59;7283590;19;152553;-79
2022/06/25 04:22:19;;;;;;;;;;;;;;;22.71;54.17;100435.22;7290838;19;154652;-79
2022/06/25 04:24:46;;;;;;;;;;;;;;;22.69;54.01;100441.16;7283820;19;153825;-79
2022/06/25 04:29:03;;;;;;;;;;;;;;;22.72;53.68;100446.13;7284262;19;153228;-79
2022/06/25 04:30:00;;;;;;;;;;;;;;;22.74;53.71;100448.63;7282671;19;151908;-79
2022/06/25 04:32:27;;;;;;;;;;;;;;;22.72;54.31;100445.31;7280507;19;155284;-79
2022/06/25 04:34:54;;;;;;;;;;;;;;;22.67;53.89;100451.91;7278435;19;154137;-78
2022/06/25 04:37:21;;;;;;;;;;;;;;;22.71;54.08;100461.41;7281004;19;152284;-78
2022/06/25 04:39:47;;;;;;;;;;;;;;;22.74;53.94;100460.72;7283618;19;156212;-79
2022/06/25 04:42:14;;;;;;;;;;;;;;;22.71;54.26;100472.69;7280861;19;155125;-79
2022/06/25 04:44:41;;;;;;;;;;;;;;;22.71;54.06;100472.69;7287516;19;151837;-79
2022/06/25 04:47:09;;;;;;;;;;;;;;;22.67;54.12;100474.44;7279845;19;155784;-79
2022/06/25 04:49:36;;;;;;;;;;;;;;;22.71;54.39;100474.66;7281994;19;152670;-79
2022/06/25 04:52:03;;;;;;;;;;;;;;;22.69;54.41;100474.13;7282060;19;152578;-79
2022/06/25 04:54:29;;;;;;;;;;;;;;;22.66;54.20;100471.97;7279321;19;155976;-79
2022/06/25 04:56:56;;;;;;;;;;;;;;;22.61;54.33;100472.97;7283922;19;153786;-79
2022/06/25 04:59:23;;;;;;;;;;;;;;;22.57;54.33;100486.91;7283164;19;152739;-80
2022/06/25 05:01:53;;;;;;;;;;;;;;;22.57;54.05;100481.28;7280345;19;158226;-79
2022/06/25 05:04:20;;;;;;;;;;;;;;;22.55;54.26;100483.59;7278545;19;152361;-79
2022/06/25 05:06:47;;;;;;;;;;;;;;;22.59;54.50;100486.56;7290027;19;153349;-79
2022/06/25 05:09:14;;;;;;;;;;;;;;;22.62;54.43;100486.72;7281841;19;152392;-79
2022/06/25 05:11:41;;;;;;;;;;;;;;;22.61;53.87;100492.69;7281666;19;154306;-79
2022/06/25 05:14:08;;;;;;;;;;;;;;;22.61;54.10;100496.34;7280249;19;153844;-79
2022/06/25 05:16:34;;;;;;;;;;;;;;;22.60;54.24;100502.31;7280050;19;152846;-78
2022/06/25 05:19:03;;;;;;;;;;;;;;;22.66;53.85;100508.59;7278532;19;153029;-78
2022/06/25 05:21:30;;;;;;;;;;;;;;;22.70;54.39;100512.44;7282374;19;153537;-80
2022/06/25 05:23:56;;;;;;;;;;;;;;;22.66;54.18;100514.22;7280462;19;152655;-79
2022/06/25 05:26:23;;;;;;;;;;;;;;;22.67;53.92;100525.13;7281681;19;152664;-79
2022/06/25 05:28:50;;;;;;;;;;;;;;;22.61;54.26;100523.66;7287837;19;153257;-79
2022/06/25 05:31:16;;;;;;;;;;;;;;;22.62;54.03;100520.50;7280143;19;153563;-79
2022/06/25 05:33:43;;;;;;;;;;;;;;;22.62;54.47;100520.50;7276772;19;154474;-78
2022/06/25 05:36:10;;;;;;;;;;;;;;;22.61;54.00;100516.06;7278634;19;152404;-78
2022/06/25 05:38:37;;;;;;;;;;;;;;;22.70;54.11;100523.69;7281764;19;153760;-79
2022/06/25 05:41:08;;;;;;;;;;;;;;;22.63;54.09;100516.53;7280897;19;154358;-78
2022/06/25 05:43:35;;;;;;;;;;;;;;;22.64;54.33;100525.81;7281140;19;154328;-79
2022/06/25 05:46:02;;;;;;;;;;;;;;;22.63;54.13;100529.78;7281865;19;153703;-79
2022/06/25 05:48:29;;;;;;;;;;;;;;;22.64;54.29;100531.44;7276745;19;154490;-78
2022/06/25 05:50:56;;;;;;;;;;;;;;;22.61;53.77;100529.31;7287131;19;152297;-79
2022/06/25 05:53:24;;;;;;;;;;;;;;;22.61;54.33;100541.41;7278731;19;153353;-78
2022/06/25 05:55:51;;;;;;;;;;;;;;;22.59;54.52;100546.53;7280711;19;153666;-78
2022/06/25 05:58:18;;;;;;;;;;;;;;;22.60;53.86;100534.09;7279354;19;153397;-78
2022/06/25 06:00:45;;;;;;;;;;;;;;;22.63;54.10;100541.06;7279597;19;154400;-78
2022/06/25 06:03:12;;;;;;;;;;;;;;;22.63;54.43;100538.22;7279280;19;152566;-79
2022/06/25 06:05:39;;;;;;;;;;;;;;;22.63;54.10;100547.50;7277213;19;153050;-78
2022/06/25 06:08:06;;;;;;;;;;;;;;;22.63;53.75;100555.13;7277979;19;156200;-79
2022/06/25 06:10:33;;;;;;;;;;;;;;;22.65;53.84;100550.00;7281192;19;152898;-79
2022/06/25 06:13:00;;;;;;;;;;;;;;;22.59;54.07;100557.78;7287617;19;152637;-79
2022/06/25 06:15:27;;;;;;;;;;;;;;;22.59;53.95;100560.59;7280434;19;153275;-79
2022/06/25 06:17:54;;;;;;;;;;;;;;;22.58;54.02;100561.75;7278248;19;153295;-79
2022/06/25 06:20:20;;;;;;;;;;;;;;;22.60;53.56;100561.44;7277991;19;154482;-79
2022/06/25 06:22:47;;;;;;;;;;;;;;;22.63;53.87;100555.97;7281238;19;153578;-79
2022/06/25 06:25:14;;;;;;;;;;;;;;;22.65;53.26;100561.28;7280089;19;152564;-79
2022/06/25 06:27:40;;;;;;;;;;;;;;;22.65;53.49;100568.88;7278279;19;154774;-79
2022/06/25 06:30:10;;;;;;;;;;;;;;;22.68;53.58;100569.03;7277542;19;151862;-78
2022/06/25 06:32:37;;;;;;;;;;;;;;;22.66;53.62;100576.19;7284717;19;153576;-79
2022/06/25 06:35:04;;;;;;;;;;;;;;;22.63;53.45;100586.94;7279397;19;152061;-78
2022/06/25 06:37:30;;;;;;;;;;;;;;;22.62;53.63;100592.91;7277891;19;152609;-78
2022/06/25 06:39:58;;;;;;;;;;;;;;;22.69;53.21;100584.78;7279626;19;154142;-78
2022/06/25 06:42:24;;;;;;;;;;;;;;;22.72;53.38;100598.22;7277271;19;152160;-79
2022/06/25 06:44:51;;;;;;;;;;;;;;;22.64;53.01;100593.41;7277520;19;152290;-79
2022/06/25 06:47:18;;;;;;;;;;;;;;;22.66;53.42;100584.63;7274509;19;153441;-79
2022/06/25 06:49:45;;;;;;;;;;;;;;;22.67;53.29;100586.28;7278211;19;152262;-79
2022/06/25 06:52:11;;;;;;;;;;;;;;;22.70;52.77;100588.47;7279449;19;153785;-79
2022/06/25 06:54:38;;;;;;;;;;;;;;;22.65;53.23;100588.59;7286426;19;153829;-79
2022/06/25 06:57:05;;;;;;;;;;;;;;;22.62;52.90;100588.09;7276337;19;153165;-79
2022/06/25 06:59:31;;;;;;;;;;;;;;;22.62;52.99;100582.47;7277331;19;155689;-79
2022/06/25 07:01:58;;;;;;;;;;;;;;;22.65;53.03;100574.53;7284310;19;152006;-79
2022/06/25 07:04:25;;;;;;;;;;;;;;;22.62;52.59;100576.81;7282442;19;153545;-79
2022/06/25 07:06:52;;;;;;;;;;;;;;;22.62;52.79;100571.19;7285828;19;153413;-79
2022/06/25 07:09:19;;;;;;;;;;;;;;;22.66;52.81;100570.56;7285356;19;152442;-79
2022/06/25 07:11:45;;;;;;;;;;;;;;;22.70;52.56;100578.03;7283392;19;153471;-80
2022/06/25 07:14:13;;;;;;;;;;;;;;;22.63;52.60;100581.31;7283619;19;153643;-79
2022/06/25 07:16:40;;;;;;;;;;;;;;;22.64;52.09;100579.31;7289742;19;152681;-79
2022/06/25 07:19:07;;;;;;;;;;;;;;;22.61;52.40;100569.56;7282695;19;153669;-79
2022/06/25 07:21:33;;;;;;;;;;;;;;;22.60;52.30;100572.69;7286361;19;151864;-79
2022/06/25 07:24:00;;;;;;;;;;;;;;;22.62;52.25;100578.84;7283884;19;153136;-79
2022/06/25 07:26:27;;;;;;;;;;;;;;;22.59;52.73;100577.50;7285249;19;153424;-79
2022/06/25 07:28:54;;;;;;;;;;;;;;;22.60;52.71;100572.69;7284480;19;152280;-79
2022/06/25 07:31:21;;;;;;;;;;;;;;;22.62;52.46;100574.00;7283306;19;152925;-79
2022/06/25 07:33:52;;;;;;;;;;;;;;;22.62;52.31;100576.81;7279049;19;153405;-79
2022/06/25 07:36:20;;;;;;;;;;;;;;;22.61;52.34;100591.25;7284230;19;152570;-78
2022/06/25 07:38:47;;;;;;;;;;;;;;;22.59;52.56;100583.13;7290064;19;153225;-79
2022/06/25 07:41:13;;;;;;;;;;;;;;;22.60;52.41;100581.97;7285752;19;152294;-78
2022/06/25 07:43:40;;;;;;;;;;;;;;;22.56;52.51;100578.16;7284392;19;154047;-79
2022/06/25 07:46:07;;;;;;;;;;;;;;;22.56;52.44;100588.59;7283203;19;153359;-79
2022/06/25 07:48:34;;;;;;;;;;;;;;;22.56;52.60;100599.88;7282157;19;152029;-79
2022/06/25 07:53:46;;;;;;;;;;;;;;;22.59;52.31;100600.03;7282824;19;154296;-79
2022/06/25 07:56:12;;;;;;;;;;;;;;;22.54;53.01;100591.75;7284877;19;151964;-79
2022/06/25 07:58:39;;;;;;;;;;;;;;;22.57;52.97;100591.09;7283100;19;152941;-78
2022/06/25 08:01:06;;;;;;;;;;;;;;;22.56;52.42;100602.69;7290368;19;155151;-79
2022/06/25 08:03:33;;;;;;;;;;;;;;;22.56;52.89;100606.34;7282441;19;152924;-80
2022/06/25 08:06:00;;;;;;;;;;;;;;;22.56;52.80;100603.50;7278036;19;153467;-79
2022/06/25 08:08:28;;;;;;;;;;;;;;;22.60;52.21;100596.06;7283809;19;151668;-79
2022/06/25 08:10:54;;;;;;;;;;;;;;;22.58;51.96;100606.81;7283069;19;153174;-79
2022/06/25 08:13:24;;;;;;;;;;;;;;;22.57;52.50;100601.53;7279655;19;152258;-79
2022/06/25 08:15:51;;;;;;;;;;;;;;;22.66;52.43;100601.53;7283852;19;152818;-79
2022/06/25 08:18:18;;;;;;;;;;;;;;;22.59;52.39;100605.66;7281424;19;153195;-79
2022/06/25 08:20:45;;;;;;;;;;;;;;;22.58;52.24;100605.97;7281424;19;153555;-79
2022/06/25 08:23:11;;;;;;;;;;;;;;;22.61;51.77;100602.53;7289075;19;152029;-79
2022/06/25 08:25:38;;;;;;;;;;;;;;;22.56;52.05;100606.34;7282938;19;153373;-79
2022/06/25 08:28:05;;;;;;;;;;;;;;;22.60;51.99;100607.31;7281702;19;152499;-79
2022/06/25 08:30:32;;;;;;;;;;;;;;;22.57;52.21;100602.38;7279744;19;153989;-79
2022/06/25 08:32:59;;;;;;;;;;;;;;;22.57;51.71;100613.63;7279929;19;153643;-79
2022/06/25 08:35:26;;;;;;;;;;;;;;;22.62;51.68;100607.00;7282475;19;153180;-80
2022/06/25 08:37:53;;;;;;;;;;;;;;;22.60;51.26;100612.97;7282747;19;155340;-78
2022/06/25 08:40:20;;;;;;;;;;;;;;;22.61;52.03;100613.78;7282028;19;152951;-78
2022/06/25 08:42:48;;;;;;;;;;;;;;;22.61;52.23;100620.25;7291126;19;152386;-79
2022/06/25 08:45:16;;;;;;;;;;;;;;;22.56;50.30;100619.56;7282116;19;152031;-80
2022/06/25 08:47:44;;;;;;;;;;;;;;;22.49;47.85;100611.59;7280516;19;152182;-79
2022/06/25 08:50:14;;;;;;;;;;;;;;;22.45;48.13;100623.84;7278596;19;154684;-79
2022/06/25 08:52:48;;;;;;;;;;;;;;;22.11;45.91;100630.25;7281958;19;156526;-77
2022/06/25 08:55:21;;;;;;;;;;;;;;;21.69;44.53;100623.28;7283906;19;154427;-76
2022/06/25 08:57:48;;;;;;;;;;;;;;;21.55;43.76;100611.31;7279992;19;153841;-76
2022/06/25 09:00:15;;;;;;;;;;;;;;;21.34;43.93;100624.28;7280559;19;154435;-76
2022/06/25 09:02:49;;;;;;;;;;;;;;;21.18;43.40;100627.47;7278870;19;152899;-76
2022/06/25 09:05:16;;;;;;;;;;;;;;;21.08;42.98;100621.25;7286164;19;153377;-76
2022/06/25 09:08:03;;;;;;;;;;;;;;;20.96;43.64;100612.59;7282118;19;152506;-77
2022/06/25 09:10:30;;;;;;;;;;;;;;;20.94;43.28;100623.31;7281784;19;152477;-76
2022/06/25 09:12:58;;;;;;;;;;;;;;;20.80;43.19;100604.53;7279381;19;153309;-76
2022/06/25 09:15:30;;;;;;;;;;;;;;;20.73;43.55;100598.53;7281177;19;152944;-76
2022/06/25 09:17:57;;;;;;;;;;;;;;;20.73;43.97;100597.72;7272782;19;152797;-77
2022/06/25 09:20:26;;;;;;;;;;;;;;;20.89;43.89;100595.38;7277313;19;155051;-77
2022/06/25 09:22:57;;;;;;;;;;;;;;;21.05;44.04;100599.44;7281813;19;151981;-76
2022/06/25 09:25:26;;;;;;;;;;;;;;;21.15;44.98;100593.59;7281700;19;153308;-76
2022/06/25 09:27:53;;;;;;;;;;;;;;;21.26;45.33;100601.41;7290148;19;154279;-77
2022/06/25 09:30:21;;;;;;;;;;;;;;;21.29;45.51;100594.31;7281180;19;153557;-77
2022/06/25 09:32:49;;;;;;;;;;;;;;;21.39;44.98;100601.66;7275430;19;155984;-76
2022/06/25 09:35:33;;;;;;;;;;;;;;;21.38;45.05;100606.44;7277896;19;152041;-77
2022/06/25 09:38:04;;;;;;;;;;;;;;;21.40;45.45;100604.13;7280306;19;152105;-77
2022/06/25 09:40:31;;;;;;;;;;;;;;;21.44;45.62;100595.91;7279784;19;154021;-77
2022/06/25 09:42:58;;;;;;;;;;;;;;;21.49;45.36;100593.75;7282216;19;152370;-77
2022/06/25 09:45:25;;;;;;;;;;;;;;;21.57;45.25;100609.84;7281385;19;154825;-77
2022/06/25 09:47:54;;;;;;;;;;;;;;;21.54;45.43;100604.03;7277332;19;154706;-77
2022/06/25 09:50:21;;;;;;;;;;;;;;;21.62;45.34;100617.31;7285488;19;151966;-76
2022/06/25 09:52:59;;;;;;;;;;;;;;;21.70;45.09;100610.91;7279951;19;152776;-88
2022/06/25 09:55:27;;;;;;;;;;;;;;;21.74;45.27;100612.75;7278619;19;152238;-77
2022/06/25 09:57:54;;;;;;;;;;;;;;;21.73;45.54;100621.50;7279446;19;152868;-76
2022/06/25 10:00:22;;;;;;;;;;;;;;;21.69;44.97;100604.44;7223589;19;154888;-76
2022/06/25 10:02:50;;;;;;;;;;;;;;;21.70;45.39;100600.47;7271704;19;151991;-76
2022/06/25 10:05:18;;;;;;;;;;;;;;;21.69;45.44;100601.63;7264567;19;155733;-77
2022/06/25 10:08:04;;;;;;;;;;;;;;;21.71;45.29;100601.31;7273880;19;152999;-76
2022/06/25 10:10:33;;;;;;;;;;;;;;;21.70;45.50;100589.25;7273058;19;155064;-76
2022/06/25 10:13:00;;;;;;;;;;;;;;;21.74;45.52;100593.06;7283929;19;156924;-76
2022/06/25 10:15:28;;;;;;;;;;;;;;;21.75;45.51;100588.25;7275822;19;153475;-77
2022/06/25 10:17:55;;;;;;;;;;;;;;;21.79;45.98;100597.69;7270919;19;154224;-77
2022/06/25 10:20:22;;;;;;;;;;;;;;;21.84;45.75;100602.34;7271364;19;153811;-77
2022/06/25 10:22:49;;;;;;;;;;;;;;;21.84;45.96;100606.00;7276831;19;152270;-77
2022/06/25 10:25:18;;;;;;;;;;;;;;;21.90;45.78;100609.47;7276745;19;152917;-77
2022/06/25 10:27:46;;;;;;;;;;;;;;;21.86;45.38;100595.22;7274968;19;155182;-78
2022/06/25 10:30:14;;;;;;;;;;;;;;;21.87;45.08;100580.03;7275095;19;152632;-78
2022/06/25 10:32:41;;;;;;;;;;;;;;;21.86;44.96;100591.59;7275601;19;152388;-78
2022/06/25 10:35:08;;;;;;;;;;;;;;;21.96;44.53;100594.13;7282068;19;152524;-77
2022/06/25 10:37:54;;;;;;;;;;;;;;;21.95;44.63;100600.91;7278202;19;152701;-78
2022/06/25 10:40:21;;;;;;;;;;;;;;;21.98;44.49;100584.22;7275887;19;153380;-78
2022/06/25 10:42:59;;;;;;;;;;;;;;;21.98;44.83;100594.66;7272904;19;154327;-78
2022/06/25 10:45:46;;;;;;;;;;;;;;;21.97;44.95;100607.88;7275611;19;152704;-78
2022/06/25 10:48:13;;;;;;;;;;;;;;;21.99;44.69;100591.50;7272487;19;153142;-78
2022/06/25 10:50:44;;;;;;;;;;;;;;;22.00;44.29;100584.72;7266921;19;153519;-78
2022/06/25 10:53:10;;;;;;;;;;;;;;;22.03;44.37;100597.31;7270215;19;154993;-77
2022/06/25 10:55:40;;;;;;;;;;;;;;;22.04;44.27;100591.34;7276119;19;154275;-78
2022/06/25 10:58:15;;;;;;;;;;;;;;;22.07;44.56;100595.50;7271951;19;154045;-77
2022/06/25 11:00:52;;;;;;;;;;;;;;;22.05;44.03;100598.63;7269139;19;152773;-78
2022/06/25 11:03:27;;;;;;;;;;;;;;;22.03;44.11;100605.75;7270160;19;155163;-78
2022/06/25 11:05:55;;;;;;;;;;;;;;;22.01;44.03;100619.31;7267160;19;152611;-77
2022/06/25 11:08:31;;;;;;;;;;;;;;;21.99;43.94;100607.53;7268878;19;154136;-78
2022/06/25 11:10:58;;;;;;;;;;;;;;;21.99;43.84;100618.78;7270488;19;154093;-78
2022/06/25 11:13:27;;;;;;;;;;;;;;;21.98;43.60;100622.78;7269838;19;154018;-78
2022/06/25 11:15:54;;;;;;;;;;;;;;;22.01;43.43;100611.69;7267508;19;152507;-78
2022/06/25 11:18:21;;;;;;;;;;;;;;;21.99;43.58;100608.38;7271849;19;152122;-77
2022/06/25 11:20:48;;;;;;;;;;;;;;;21.97;43.27;100607.06;7265513;19;153774;-77
2022/06/25 11:23:15;;;;;;;;;;;;;;;21.98;43.48;100608.72;7276745;19;152247;-78
2022/06/25 11:28:53;;;;;;;;;;;;;;;21.95;43.38;100607.38;7273245;19;154013;-78
2022/06/25 11:31:21;;;;;;;;;;;;;;;21.96;43.90;100605.38;7272173;19;152626;-78
2022/06/25 11:33:49;;;;;;;;;;;;;;;21.96;43.47;100625.91;7269005;19;155391;-78
2022/06/25 11:36:16;;;;;;;;;;;;;;;21.95;43.03;100612.16;7269009;19;154222;-78
2022/06/25 11:38:44;;;;;;;;;;;;;;;21.95;43.31;100617.78;7274856;19;152729;-77
2022/06/25 11:41:26;;;;;;;;;;;;;;;21.94;43.36;100607.72;7285111;19;155305;-78
2022/06/25 11:43:53;;;;;;;;;;;;;;;21.94;43.75;100622.59;7273086;19;152236;-77
2022/06/25 11:46:20;;;;;;;;;;;;;;;21.96;43.32;100639.97;7295750;19;152619;-76
2022/06/25 11:48:47;;;;;;;;;;;;;;;21.93;43.42;100626.56;7291696;19;152754;-78
2022/06/25 11:51:23;;;;;;;;;;;;;;;21.95;43.60;100631.84;7288003;19;151807;-77
2022/06/25 11:53:51;;;;;;;;;;;;;;;21.96;43.66;100630.72;7284597;19;153348;-77
2022/06/25 11:56:19;;;;;;;;;;;;;;;21.96;43.75;100639.16;7279142;19;154038;-78
2022/06/25 11:58:46;;;;;;;;;;;;;;;21.96;43.97;100630.72;7273752;19;152795;-77
2022/06/25 12:01:13;;;;;;;;;;;;;;;21.96;43.84;100622.25;7277940;19;155153;-78
2022/06/25 12:03:40;;;;;;;;;;;;;;;21.98;44.33;100622.78;7280633;19;156672;-77
2022/06/25 12:06:09;;;;;;;;;;;;;;;22.03;44.07;100636.69;7275949;19;152251;-78
2022/06/25 12:08:36;;;;;;;;;;;;;;;22.02;44.24;100618.16;7277601;19;152323;-78
2022/06/25 12:11:03;;;;;;;;;;;;;;;22.02;43.69;100624.63;7277668;19;152552;-77
2022/06/25 12:13:30;;;;;;;;;;;;;;;22.02;43.98;100629.41;7278475;19;152953;-77
2022/06/25 12:15:58;;;;;;;;;;;;;;;22.02;43.80;100626.59;7275426;19;156613;-77
2022/06/25 12:18:35;;;;;;;;;;;;;;;22.03;43.24;100622.63;7277102;19;154771;-77
2022/06/25 12:21:02;;;;;;;;;;;;;;;22.03;43.39;100619.81;7277648;19;154140;-77
2022/06/25 12:23:29;;;;;;;;;;;;;;;22.02;43.56;100613.38;7279071;19;154846;-78
2022/06/25 12:25:56;;;;;;;;;;;;;;;22.04;43.13;100613.84;7285805;19;153265;-77
2022/06/25 12:28:38;;;;;;;;;;;;;;;22.04;43.52;100615.81;7277028;19;155496;-78
2022/06/25 12:31:09;;;;;;;;;;;;;;;22.05;43.58;100615.50;7274375;19;152258;-78
2022/06/25 12:33:36;;;;;;;;;;;;;;;22.06;43.54;100614.38;7274053;19;154881;-78
2022/06/25 12:36:14;;;;;;;;;;;;;;;22.06;43.41;100610.72;7276521;19;153736;-78
2022/06/25 12:38:41;;;;;;;;;;;;;;;22.08;43.33;100611.19;7278194;19;155820;-77
2022/06/25 12:41:07;;;;;;;;;;;;;;;22.12;43.25;100610.22;7276911;19;153270;-78
2022/06/25 12:43:45;;;;;;;;;;;;;;;22.09;43.35;100599.63;7276380;19;152053;-78
2022/06/25 12:46:12;;;;;;;;;;;;;;;22.11;42.85;100599.31;7285927;19;152050;-78
2022/06/25 12:48:38;;;;;;;;;;;;;;;22.09;43.24;100598.81;7272104;19;152799;-78